Home > Products > Valid Products > MTR

000
SAUS41 KLWX 020900
MTRRYT
METAR KRYT 020853Z AUTO 20005KT 10SM CLR A2995 RMK AO2 SLPNO 56010 $





000
SAUS41 KLWX 020859 COR
MTRDMH
METAR KDMH 020854Z AUTO 25/23 A2994 RMK AO1 SLP136 T02500228 56008





000
SAUS41 KLWX 020855
MTRNAK
METAR KNAK 020854Z AUTO 00000KT 10SM CLR 25/22 A2993 RMK AO2 SLP137
T02500222 56008 $





000
SAUS41 KLWX 020800
MTRRYT
METAR KRYT 020753Z AUTO VRB06KT 10SM CLR A2995 RMK AO2 SLPNO $





000
SAUS41 KLWX 020759 COR
MTRDMH
METAR KDMH 020754Z AUTO 26/22 A2994 RMK AO1 SLP139 T02560222





000
SAUS41 KLWX 020755
MTRNAK
METAR KNAK 020754Z AUTO 00000KT 10SM CLR 25/22 A2994 RMK AO2 SLP139
T02500222 $





000
SAUS41 KLWX 020700
MTRRYT
METAR KRYT 020653Z AUTO 21005KT 10SM CLR A2996 RMK AO2 SLPNO $





000
SAUS41 KLWX 020659 COR
MTRDMH
METAR KDMH 020654Z AUTO 26/23 A2994 RMK AO1 SLP139 T02610228





000
SAUS41 KLWX 020656
MTRNAK
METAR KNAK 020654Z AUTO 31003KT 10SM CLR 26/23 A2994 RMK AO2 SLP139
T02610228 $





000
SAUS41 KLWX 020600
MTRRYT
METAR KRYT 020553Z AUTO 22003KT 10SM SCT090 A2998 RMK AO2 SLPNO
55003 $





000
SAUS41 KLWX 020559 COR
MTRDMH
METAR KDMH 020554Z AUTO 27/22 A2996 RMK AO1 SLP145 T02720222 10300
20272 55001





000
SAUS41 KLWX 020556
MTRNAK
METAR KNAK 020554Z AUTO 00000KT 10SM FEW120 27/23 A2995 RMK AO2
SLP145 T02670228 10283 20256 55003 $





000
SAUS41 KLWX 020500
MTRRYT
METAR KRYT 020453Z AUTO 21005KT 10SM BKN080 A2997 RMK AO2 SLPNO $





000
SAUS41 KLWX 020459 COR
MTRDMH
METAR KDMH 020454Z AUTO 27/23 A2996 RMK AO1 SLP144 T02720228
403280239





000
SAUS41 KLWX 020455
MTRNAK
METAR KNAK 020454Z AUTO 00000KT 10SM FEW075 BKN090 27/23 A2995 RMK
AO2 SLP143 T02720228 403000233 $





000
SAUS41 KLWX 020400
MTRRYT
METAR KRYT 020353Z AUTO 00000KT 10SM FEW065 A2998 RMK AO2 SLPNO $





000
SAUS41 KLWX 020400
MTRRYT
METAR KRYT 020353Z AUTO 00000KT 10SM FEW065 A2998 RMK AO2 SLPNO $





000
SAUS41 KLWX 020359 COR
MTRDMH
METAR KDMH 020354Z AUTO 28/22 A2996 RMK AO1 SLP144 T02780222





000
SAUS41 KLWX 020359 COR
MTRDMH
METAR KDMH 020354Z AUTO 28/22 A2996 RMK AO1 SLP144 T02780222





000
SAUS41 KLWX 020355
MTRNAK
METAR KNAK 020354Z AUTO 00000KT 6SM HZ FEW090 27/23 A2996 RMK AO2
SLP146 T02670233 $





000
SAUS41 KLWX 020355
MTRNAK
METAR KNAK 020354Z AUTO 00000KT 6SM HZ FEW090 27/23 A2996 RMK AO2
SLP146 T02670233 $





000
SAUS41 KLWX 020300
MTRRYT
METAR KRYT 020253Z AUTO 00000KT 10SM SCT060 SCT075 BKN090 A2999 RMK
AO2 SLPNO 51006 $





000
SAUS41 KLWX 020259 COR
MTRDMH
METAR KDMH 020254Z AUTO 28/22 A2996 RMK AO1 SLP145 T02780222 50003





000
SAUS41 KLWX 020255
MTRNAK
METAR KNAK 020254Z AUTO 00000KT 8SM CLR 26/24 A2996 RMK AO2 SLP148
T02610244 52002 $





000
SAUS41 KLWX 020200
MTRRYT
METAR KRYT 020153Z AUTO 00000KT 9SM FEW060 SCT120 A2999 RMK AO2
SLPNO $





000
SAUS41 KLWX 020159 COR
MTRDMH
METAR KDMH 020154Z AUTO 28/23 A2997 RMK AO1 SLP148 T02830228





000
SAUS41 KLWX 020155
MTRNAK
METAR KNAK 020154Z AUTO 00000KT 9SM CLR 27/24 A2997 RMK AO2 SLP149
T02670244 $





000
SAUS41 KLWX 020100
MTRRYT
METAR KRYT 020053Z AUTO 00000KT 10SM CLR A2998 RMK AO2 SLPNO $





000
SAUS41 KLWX 020059 COR
MTRDMH
METAR KDMH 020054Z AUTO 29/22 A2995 RMK AO1 SLP141 T02940222





000
SAUS41 KLWX 020055
MTRNAK
METAR KNAK 020054Z AUTO 00000KT 10SM CLR 28/23 A2995 RMK AO2 SLP145
T02780228 $





000
SAUS41 KLWX 020000
MTRRYT
METAR KRYT 012353Z AUTO 00000KT 10SM CLR A2997 RMK AO2 SLPNO 53003 $





000
SAUS41 KLWX 012359 COR
MTRDMH
METAR KDMH 012354Z AUTO 30/22 A2995 RMK AO1 SLP142 T03000222 10328
20294 53001





000
SAUS41 KLWX 012356
MTRNAK
METAR KNAK 012354Z AUTO 00000KT 10SM BKN075 28/24 A2996 RMK AO2
SLP146 60000 T02780239 10300 20278 53006 $





000
SAUS41 KLWX 012300
MTRRYT
METAR KRYT 012253Z AUTO 00000KT 10SM CLR A2996 RMK AO2 SLPNO $





000
SAUS41 KLWX 012259 COR
MTRDMH
METAR KDMH 012254Z AUTO 31/21 A2994 RMK AO1 SLP138 T03110206





000
SAUS41 KLWX 012255
MTRNAK
METAR KNAK 012254Z AUTO 00000KT 10SM FEW075 SCT090 30/23 A2994 RMK
AO2 RAE2155 SLP141 P0000 T03000233 $





000
SAUS41 KLWX 012200
MTRRYT
METAR KRYT 012153Z AUTO 27003KT 10SM CLR A2995 RMK AO2 SLPNO $





000
SAUS41 KLWX 012159 COR
MTRDMH
METAR KDMH 012154Z AUTO 31/23 A2993 RMK AO1 SLP134 T03110228





000
SAUS41 KLWX 012155
MTRNAK
METAR KNAK 012154Z AUTO 00000KT 10SM -RA OVC046 28/23 A2994 RMK AO2
RAB07E17B41 SLP140 P0000 T02830233 $





000
SAUS41 KLWX 012100
MTRRYT
METAR KRYT 012053Z AUTO 29004KT 10SM FEW036 SCT050 A2996 RMK AO2
SLPNO 56013 $





000
SAUS41 KLWX 012059 COR
MTRDMH
METAR KDMH 012054Z AUTO 30/24 A2995 RMK AO1 SLP141 T03000239 56006





000
SAUS41 KLWX 012055
MTRNAK
METAR KNAK 012054Z AUTO 17007KT 10SM BKN055 BKN075 29/23 A2994 RMK
AO2 SLP140 T02890228 56012 $





000
SAUS41 KLWX 012000
MTRRYT
METAR KRYT 011953Z AUTO 23006KT 10SM SCT035 SCT045 BKN070 A2997 RMK
AO2 SLPNO $





000
SAUS41 KLWX 011959 COR
MTRDMH
METAR KDMH 011954Z AUTO 31/23 A2995 RMK AO1 SLP141 T03060228





000
SAUS41 KLWX 011955
MTRNAK
METAR KNAK 011954Z AUTO 14009KT 10SM FEW090 29/24 A2994 RMK AO2
SLP142 T02940239 $





000
SAUS41 KLWX 011900
MTRRYT
METAR KRYT 011853Z AUTO VRB06KT 10SM FEW037 A2998 RMK AO2 SLPNO $





000
SAUS41 KLWX 011859 COR
MTRDMH
METAR KDMH 011854Z AUTO 32/23 A2995 RMK AO1 SLP142 T03220228





000
SAUS41 KLWX 011855
MTRNAK
METAR KNAK 011854Z AUTO 12012KT 10SM BKN080 28/24 A2996 RMK AO2
SLP147 T02830244 $





000
SAUS41 KLWX 011800 COR
MTRDMH
METAR KDMH 011754Z AUTO 31/23 A2997 RMK AO1 SLP148 T03110233 10322
20239 56013





000
SAUS41 KLWX 011800
MTRRYT
METAR KRYT 011753Z AUTO VRB05KT 10SM FEW033 SCT043 A3000 RMK AO2
SLPNO 58010 $





000
SAUS41 KLWX 011755
MTRNAK
METAR KNAK 011754Z AUTO 14008KT 10SM SCT060 BKN075 29/24 A2998 RMK
AO2 SLP152 60000 T02890239 10289 20239 56014 $





000
SAUS41 KLWX 011700
MTRRYT
METAR KRYT 011653Z AUTO VRB05KT 10SM BKN060 OVC075 A3001 RMK AO2
SLPNO $





000
SAUS41 KLWX 011659 COR
MTRDMH
METAR KDMH 011654Z AUTO 31/22 A2998 RMK AO1 SLP151 T03060217





000
SAUS41 KLWX 011655
MTRNAK
METAR KNAK 011654Z AUTO 13013KT 10SM FEW035 27/23 A2998 RMK AO2
SLP155 T02720233 $





000
SAUS41 KLWX 011600
MTRRYT
METAR KRYT 011553Z AUTO VRB03KT 10SM SCT037 OVC060 A3003 RMK AO2
SLPNO $





000
SAUS41 KLWX 011559 COR
MTRDMH
METAR KDMH 011554Z AUTO 30/23 A2999 RMK AO1 SLP156 T03000228





000
SAUS41 KLWX 011555
MTRNAK
METAR KNAK 011554Z AUTO 12009KT 10SM SCT031 27/23 A3000 RMK AO2
SLP162 T02670233 $





000
SAUS41 KLWX 011529
MTRRYT
SPECI KRYT 011528Z AUTO 27003KT 10SM SCT026 OVC035 A3003 RMK AO2 $





000
SAUS41 KLWX 011522
MTRRYT
SPECI KRYT 011521Z AUTO 00000KT 10SM BKN024 BKN030 OVC038 A3003 RMK
AO2 $





000
SAUS41 KLWX 011500
MTRRYT
METAR KRYT 011453Z AUTO 00000KT 10SM FEW029 BKN040 OVC065 A3003 RMK
AO2 SLPNO 56006 $





000
SAUS41 KLWX 011459 COR
MTRDMH
METAR KDMH 011454Z AUTO 28/23 A3001 RMK AO1 SLP160 T02830228 57011





000
SAUS41 KLWX 011455
MTRNAK
METAR KNAK 011454Z AUTO 22006KT 10SM CLR 28/23 A3001 RMK AO2 SLP166
60000 T02830228 56007





000
SAUS41 KLWX 011400
MTRRYT
METAR KRYT 011353Z AUTO 00000KT 10SM FEW037 BKN060 A3003 RMK AO2
SLPNO $





000
SAUS41 KLWX 011359 COR
MTRDMH
METAR KDMH 011354Z AUTO 27/22 A3001 RMK AO1 SLP163 T02720222





000
SAUS41 KLWX 011355
MTRNAK
METAR KNAK 011354Z AUTO 00000KT 10SM CLR 27/22 A3002 RMK AO2 SLP166
T02670222





000
SAUS41 KLWX 011300
MTRRYT
METAR KRYT 011253Z AUTO 00000KT 10SM BKN037 BKN045 OVC065 A3004 RMK
AO2 SLPNO $





000
SAUS41 KLWX 011259 COR
MTRDMH
METAR KDMH 011254Z AUTO 26/23 A3003 RMK AO1 SLP168 T02560228





000
SAUS41 KLWX 011255
MTRNAK
METAR KNAK 011254Z AUTO 00000KT 10SM CLR 26/22 A3002 RMK AO2
RAB22E31 SLP168 P0000 T02560222





000
SAUS41 KLWX 011200
MTRRYT
METAR KRYT 011153Z AUTO 00000KT 10SM FEW035 OVC050 A3005 RMK AO2
SLPNO 52006 $





000
SAUS41 KLWX 011159 COR
MTRDMH
METAR KDMH 011154Z AUTO 24/22 A3004 RMK AO1 SLP171 70003 T02390222
10244 20239 51010





000
SAUS41 KLWX 011158 COR
MTRNAK
METAR KNAK 011154Z AUTO 17003KT 10SM FEW050 SCT090 BKN120 24/22
A3004 RMK AO2 RAB45E54 SLP173 P0000 60000 70038 T02390217 10244
20233 51009





000
SAUS41 KLWX 011156 COR
MTRNAK
METAR KNAK 011154Z AUTO 17003KT 10SM FEW050 SCT090 BKN120 24/22
A3004 RMK AO2 RAB45E54 SLP173 P0000 60000 70038 T02390217 10244
20233 51009





000
SAUS41 KLWX 011155
MTRNAK
METAR KNAK 011154Z AUTO 17003KT 10SM FEW050 SCT090 BKN120 24/22
A3004 RMK AO2 RAB45E54 SLP173 P0000 60000 70038 T02390217 10244
20233 51009





000
SAUS41 KLWX 011100
MTRRYT
METAR KRYT 011053Z AUTO 00000KT 10SM CLR A3004 RMK AO2 SLPNO $





000
SAUS41 KLWX 011059 COR
MTRDMH
METAR KDMH 011054Z AUTO 24/22 A3003 RMK AO1 SLP170 T02390222





000
SAUS41 KLWX 011055
MTRNAK
METAR KNAK 011054Z AUTO 00000KT 10SM FEW070 24/22 A3003 RMK AO2
RAB25E44 SLP172 P0000 T02390222





000
SAUS41 KLWX 011000
MTRRYT
METAR KRYT 010953Z AUTO 00000KT 10SM CLR A3004 RMK AO2 SLPNO $





000
SAUS41 KLWX 010959 COR
MTRDMH
METAR KDMH 010954Z AUTO 24/22 A3002 RMK AO1 SLP165 T02390222





000
SAUS41 KLWX 010955
MTRNAK
METAR KNAK 010954Z AUTO 00000KT 10SM BKN080 24/22 A3002 RMK AO2
SLP166 T02390222





000
SAUS41 KLWX 010900
MTRRYT
METAR KRYT 010853Z AUTO 00000KT 10SM SCT042 A3003 RMK AO2 SLPNO
52003 $





000
SAUS41 KLWX 010859 COR
MTRDMH
METAR KDMH 010854Z AUTO 24/22 A3001 RMK AO1 SLP161 T02390222 56002





000
SAUS41 KLWX 010855
MTRNAK
METAR KNAK 010854Z AUTO 17003KT 10SM SCT070 OVC085 23/22 A3001 RMK
AO2 SLP163 60000 T02330222 53000





000
SAUS41 KLWX 010800
MTRRYT
METAR KRYT 010753Z AUTO 00000KT 10SM FEW048 SCT060 A3002 RMK AO2
SLPNO $





000
SAUS41 KLWX 010759 COR
MTRDMH
METAR KDMH 010754Z AUTO 24/22 A3001 RMK AO1 SLP161 T02390222





000
SAUS41 KLWX 010755
MTRNAK
METAR KNAK 010754Z AUTO 00000KT 10SM BKN110 24/22 A2999 RMK AO2
RAB0657E07B26E35 SLP158 P0000 T02390222





000
SAUS41 KLWX 010700
MTRRYT
METAR KRYT 010653Z AUTO 00000KT 10SM CLR A3003 RMK AO2 SLPNO $





000
SAUS41 KLWX 010659 COR
MTRDMH
METAR KDMH 010654Z AUTO 24/22 A3001 RMK AO1 SLP163 T02390222





000
SAUS41 KLWX 010655
MTRNAK
METAR KNAK 010654Z AUTO 00000KT 10SM OVC090 24/22 A3001 RMK AO2
SLP163 T02390222





000
SAUS41 KLWX 010600
MTRRYT
METAR KRYT 010553Z AUTO 00000KT 10SM FEW041 A3002 RMK AO2 SLPNO
57006 $





000
SAUS41 KLWX 010559 COR
MTRDMH
METAR KDMH 010554Z AUTO 24/23 A3002 RMK AO1 SLP164 T02390228 10250
20239 58007





000
SAUS41 KLWX 010555
MTRNAK
METAR KNAK 010554Z AUTO 19003KT 10SM FEW090 24/22 A3001 RMK AO2
RAB04E14 SLP163 P0000 60038 T02390222 10250 20233 58013





000
SAUS41 KLWX 010500
MTRRYT
METAR KRYT 010453Z AUTO 00000KT 10SM FEW110 A3003 RMK AO2 SLPNO $





000
SAUS41 KLWX 010459 COR
MTRDMH
METAR KDMH 010454Z AUTO 24/23 A3002 RMK AO1 SLP167 T02390228
403440239





000
SAUS41 KLWX 010455
MTRNAK
METAR KNAK 010454Z AUTO 00000KT 10SM FEW048 FEW060 24/22 A3002 RMK
AO2 SLP167 T02390222 403170233





000
SAUS41 KLWX 010409
MTRNAK
SPECI KNAK 010408Z AUTO 00000KT 10SM SCT013 BKN090 23/22 A3003 RMK
AO2 T02330222





000
SAUS41 KLWX 010400
MTRRYT
METAR KRYT 010353Z AUTO 00000KT 10SM SCT043 BKN050 A3003 RMK AO2
SLPNO $





000
SAUS41 KLWX 010359 COR
MTRDMH
METAR KDMH 010354Z AUTO 24/23 A3003 RMK AO1 SLP168 T02440228





000
SAUS41 KLWX 010355
MTRNAK
METAR KNAK 010354Z AUTO 00000KT 10SM SCT013 BKN020 OVC090 24/22
A3004 RMK AO2 RAE31 SLP172 P0010 T02390222





000
SAUS41 KLWX 010343
MTRNAK
SPECI KNAK 010342Z AUTO 15004KT 10SM FEW015 BKN070 OVC090 23/22
A3004 RMK AO2 RAE31 P0010 T02330222





000
SAUS41 KLWX 010313
MTRNAK
SPECI KNAK 010312Z AUTO 00000KT 3SM RA BR BKN016 BKN042 OVC065 24/22
A3004 RMK AO2 P0008 T02390222





000
SAUS41 KLWX 010309
MTRNAK
SPECI KNAK 010307Z AUTO 00000KT 2 1/2SM RA BR SCT018 BKN048 OVC080
24/22 A3004 RMK AO2 P0006 T02390222





000
SAUS41 KLWX 010300
MTRRYT
METAR KRYT 010253Z AUTO 00000KT 10SM BKN047 OVC120 A3004 RMK AO2
SLPNO 51003 $





000
SAUS41 KLWX 010300 COR
MTRDMH
METAR KDMH 010254Z AUTO 25/23 A3004 RMK AO1 SLP170 T02500228 53003





000
SAUS41 KLWX 010255
MTRNAK
METAR KNAK 010254Z AUTO 00000KT 1 1/4SM +RA BR FEW033 BKN047 OVC075
24/23 A3004 RMK AO2 SLP176 P0017 60028 T02390228 53009





000
SAUS41 KLWX 010249
MTRNAK
SPECI KNAK 010247Z AUTO 00000KT 2SM RA BR SCT045 BKN055 BKN075 24/23
A3004 RMK AO2 P0010 T02390228





000
SAUS41 KLWX 010200
MTRRYT
METAR KRYT 010153Z AUTO 00000KT 10SM BKN090 A3004 RMK AO2 SLPNO $





000
SAUS41 KLWX 010159 COR
MTRDMH
METAR KDMH 010154Z AUTO 25/23 A3003 RMK AO1 SLP170 T02500228





000
SAUS41 KLWX 010155
MTRNAK
METAR KNAK 010154Z AUTO 13003KT 10SM -RA CLR 25/22 A3001 RMK AO2
SLP165 P0005 T02500217





000
SAUS41 KLWX 010155
MTRNAK
METAR KNAK 010154Z AUTO 13003KT 10SM -RA CLR 25/22 A3001 RMK AO2
SLP165 P0005 T02500217





000
SAUS41 KLWX 010100
MTRRYT
METAR KRYT 010053Z AUTO 00000KT 10SM BKN070 OVC090 A3004 RMK AO2
SLPNO $





000
SAUS41 KLWX 010059 COR
MTRDMH
METAR KDMH 010054Z AUTO 25/23 A3001 RMK AO1 SLP161 T02500228





000
SAUS41 KLWX 010055
MTRNAK
METAR KNAK 010054Z AUTO 00000KT 7SM -RA FEW120 24/22 A3002 RMK AO2
RAB03 SLP167 P0006 T02440222 $





000
SAUS41 KLWX 010000
MTRRYT
METAR KRYT 312353Z AUTO 00000KT 10SM BKN100 A3003 RMK AO2 SLPNO
52006 $





000
SAUS41 KLWX 312359 COR
MTRDMH
METAR KDMH 312354Z AUTO 24/23 A3003 RMK AO1 SLP167 P0003 60003
T02440228 10344 20244 51016





000
SAUS41 KLWX 312355
MTRNAK
METAR KNAK 312354Z AUTO 32003KT 10SM FEW034 FEW100 25/22 A3002 RMK
AO2 WSHFT 2321 SLP166 T02500217 10317 20244 53012 $





000
SAUS41 KLWX 312343
MTRNAK
SPECI KNAK 312341Z AUTO 31006KT 10SM FEW036 SCT070 SCT100 24/22
A3001 RMK AO2 WSHFT 2321 T02440222 $





000
SAUS41 KLWX 312300
MTRRYT
METAR KRYT 312253Z AUTO 00000KT 10SM FEW031 BKN100 A3002 RMK AO2
SLPNO $





000
SAUS41 KLWX 312259 COR
MTRDMH
METAR KDMH 312254Z AUTO 27/22 A3001 RMK AO1 SLP160 T02670222





000
SAUS41 KLWX 312255
MTRNAK
METAR KNAK 312254Z AUTO 19007KT 10SM FEW095 28/23 A2999 RMK AO2
SLP157 T02780233 $





000
SAUS41 KLWX 312200
MTRRYT
METAR KRYT 312153Z AUTO 22003KT 10SM CLR A3002 RMK AO2 SLPNO $





000
SAUS41 KLWX 312159 COR
MTRDMH
METAR KDMH 312154Z AUTO 29/20 A3001 RMK AO1 PRESRR SLP161 T02890200





000
SAUS41 KLWX 312156
MTRNAK
METAR KNAK 312154Z AUTO 17013KT 10SM FEW065 FEW090 28/23 A2998 RMK
AO2 SLP155 T02830228





000
SAUS41 KLWX 312100
MTRRYT
METAR KRYT 312053Z AUTO 00000KT 10SM SCT050 A3001 RMK AO2 SLPNO
56013 $





000
SAUS41 KLWX 312059 COR
MTRDMH
METAR KDMH 312054Z AUTO 33/20 A2998 RMK AO1 SLP151 T03330200 55015





000
SAUS41 KLWX 312056
MTRNAK
METAR KNAK 312054Z AUTO 17010KT 10SM FEW080 29/23 A2998 RMK AO2
SLP155 T02940233 56017





000
SAUS41 KLWX 312000
MTRRYT
METAR KRYT 311953Z AUTO VRB03KT 10SM SCT065 A3001 RMK AO2 SLPNO $





000
SAUS41 KLWX 311959 COR
MTRDMH
METAR KDMH 311954Z AUTO 34/21 A2998 RMK AO1 SLP150 T03390211





000
SAUS41 KLWX 311956
MTRNAK
METAR KNAK 311954Z AUTO 17014G18KT 10SM SCT055 30/23 A2999 RMK AO2
SLP156 T03000228





000
SAUS41 KLWX 311900
MTRRYT
METAR KRYT 311853Z AUTO 19005KT 10SM FEW035 SCT050 BKN070 A3003 RMK
AO2 SLPNO $





000
SAUS41 KLWX 311859 COR
MTRDMH
METAR KDMH 311854Z AUTO 34/20 A3000 RMK AO1 SLP157 T03390200





000
SAUS41 KLWX 311855
MTRNAK
METAR KNAK 311854Z AUTO 18013G17KT 10SM SCT055 32/22 A3001 RMK AO2
SLP165 T03170222





000
SAUS41 KLWX 311800
MTRRYT
METAR KRYT 311753Z AUTO 24007G14KT 170V270 10SM FEW038 A3005 RMK AO2
SLPNO 58006 $





000
SAUS41 KLWX 311759 COR
MTRDMH
METAR KDMH 311754Z AUTO 32/21 A3002 RMK AO1 SLP166 T03220211 10333
20244 56018





000
SAUS41 KLWX 311756
MTRNAK
METAR KNAK 311754Z AUTO 17011KT 10SM FEW050 SCT085 31/22 A3003 RMK
AO2 SLP172 T03060222 10311 20244





000
SAUS41 KLWX 311700
MTRRYT
METAR KRYT 311653Z AUTO VRB04KT 10SM FEW027 A3006 RMK AO2 SLPNO $





000
SAUS41 KLWX 311659 COR
MTRDMH
METAR KDMH 311654Z AUTO 32/21 A3004 RMK AO1 SLP171 T03220211





000
SAUS41 KLWX 311655
MTRNAK
METAR KNAK 311654Z AUTO 10SM CLR 30/23 A3004 RMK AO2 SLP175
T03000228 $





000
SAUS41 KLWX 311600
MTRRYT
METAR KRYT 311553Z AUTO VRB03KT 10SM FEW025 BKN038 A3008 RMK AO2
SLPNO $





000
SAUS41 KLWX 311559 COR
MTRDMH
METAR KDMH 311554Z AUTO 31/22 A3005 RMK AO1 SLP176 T03110217





000
SAUS41 KLWX 311555
MTRNAK
METAR KNAK 311554Z AUTO 10SM 28/23 A3006 RMK AO2 SLP181 T02780233 $





000
SAUS41 KLWX 311500
MTRRYT
METAR KRYT 311453Z AUTO VRB03KT 10SM FEW031 SCT100 A3007 RMK AO2
SLPNO 58010 $





000
SAUS41 KLWX 311459 COR
MTRDMH
METAR KDMH 311454Z AUTO 29/22 A3007 RMK AO1 SLP183 T02940222 58012





000
SAUS41 KLWX 311456
MTRNAK
METAR KNAK 311454Z AUTO VRB06KT 10SM CLR 29/23 A3008 RMK AO2 SLP188
T02940228 58010





000
SAUS41 KLWX 311400
MTRRYT
METAR KRYT 311353Z AUTO 00000KT 10SM OVC100 A3009 RMK AO2 SLPNO $





000
SAUS41 KLWX 311359 COR
MTRDMH
METAR KDMH 311354Z AUTO 27/22 A3010 RMK AO1 SLP191 T02720222





000
SAUS41 KLWX 311355
MTRNAK
METAR KNAK 311354Z AUTO 18008KT 10SM CLR 28/23 A3009 RMK AO2 SLP192
T02780228





000
SAUS41 KLWX 311300
MTRRYT
METAR KRYT 311253Z AUTO 20007KT 170V230 9SM SCT100 A3010 RMK AO2
SLPNO $





000
SAUS41 KLWX 311259 COR
MTRDMH
METAR KDMH 311254Z AUTO 26/22 A3011 RMK AO1 SLP195 T02560222





000
SAUS41 KLWX 311255
MTRNAK
METAR KNAK 311254Z AUTO 18008KT 9SM CLR 26/22 A3010 RMK AO2 SLP195
T02610222





000
SAUS41 KLWX 311200
MTRRYT
METAR KRYT 311153Z AUTO 00000KT 3SM BR FEW007 A3010 RMK AO2 SLPNO
51003 $





000
SAUS41 KLWX 311159 COR
MTRDMH
METAR KDMH 311154Z AUTO 24/22 A3011 RMK AO1 SLP196 T02440222 10256
20239 51002





000
SAUS41 KLWX 311155
MTRNAK
METAR KNAK 311154Z AUTO 18005KT 8SM CLR 24/22 A3011 RMK AO2 SLP198
T02440222 10250 20239 51004





000
SAUS41 KLWX 311136
MTRRYT
SPECI KRYT 311136Z AUTO 00000KT 2SM BR BKN005 A3010 RMK AO2 $





000
SAUS41 KLWX 311129
MTRRYT
SPECI KRYT 311129Z AUTO 00000KT 3/4SM BR VV005 A3010 RMK AO2 $





000
SAUS41 KLWX 311123
MTRRYT
SPECI KRYT 311116Z AUTO 00000KT 1/4SM FG VV003 A3010 RMK AO2 $





000
SAUS41 KLWX 311106
MTRRYT
SPECI KRYT 311059Z AUTO 00000KT 1 1/4SM BR SCT003 A3010 RMK AO2 $





000
SAUS41 KLWX 311059 COR
MTRDMH
METAR KDMH 311054Z AUTO 24/22 A3011 RMK AO1 SLP196 T02390222





000
SAUS41 KLWX 311055
MTRNAK
METAR KNAK 311054Z AUTO 18005KT 7SM CLR 24/22 A3011 RMK AO2 SLP198
T02390222





000
SAUS41 KLWX 311054
MTRRYT
METAR KRYT 311053Z AUTO 00000KT 1/4SM FG VV003 A3010 RMK AO2 SLPNO $





000
SAUS41 KLWX 311039
MTRRYT
SPECI KRYT 311033Z AUTO 00000KT 1 3/4SM BR FEW002 A3010 RMK AO2 VIS
3/4V2 1/2 $





000
SAUS41 KLWX 311000
MTRRYT
METAR KRYT 310953Z AUTO 00000KT 4SM HZ SCT005 A3009 RMK AO2 SLPNO $





000
SAUS41 KLWX 310959 COR
MTRDMH
METAR KDMH 310954Z AUTO 24/22 A3011 RMK AO1 SLP194 T02440222





000
SAUS41 KLWX 310955
MTRNAK
METAR KNAK 310954Z AUTO 18005KT 8SM CLR 24/22 A3010 RMK AO2 SLP196
T02390222





000
SAUS41 KLWX 310942
MTRRYT
SPECI KRYT 310935Z AUTO 00000KT 4SM HZ FEW002 SCT007 A3009 RMK AO2 $





000
SAUS41 KLWX 310900
MTRRYT
METAR KRYT 310853Z AUTO 00000KT 5SM HZ FEW009 A3009 RMK AO2 SLPNO
58010 $





000
SAUS41 KLWX 310859 COR
MTRDMH
METAR KDMH 310854Z AUTO 24/22 A3010 RMK AO1 SLP194 T02440222 58008





000
SAUS41 KLWX 310855
MTRNAK
METAR KNAK 310854Z AUTO 17005KT 9SM CLR 24/22 A3010 RMK AO2 SLP194
T02390222 58007





000
SAUS41 KLWX 310846
MTRRYT
SPECI KRYT 310839Z AUTO 00000KT 7SM SCT011 A3009 RMK AO2 $





000
SAUS41 KLWX 310800
MTRRYT
METAR KRYT 310753Z AUTO 00000KT 6SM HZ OVC011 A3010 RMK AO2 SLPNO $





000
SAUS41 KLWX 310759 COR
MTRDMH
METAR KDMH 310754Z AUTO 24/22 A3012 RMK AO1 SLP197 T02440222





000
SAUS41 KLWX 310755
MTRNAK
METAR KNAK 310754Z AUTO 18007KT 10SM FEW014 FEW045 24/22 A3011 RMK
AO2 SLP197 T02440222





000
SAUS41 KLWX 310700
MTRRYT
METAR KRYT 310653Z AUTO 00000KT 7SM OVC011 A3012 RMK AO2 SLPNO $





000
SAUS41 KLWX 310659 COR
MTRDMH
METAR KDMH 310654Z AUTO 25/22 A3012 RMK AO1 SLP200 T02500222





000
SAUS41 KLWX 310655
MTRNAK
METAR KNAK 310654Z AUTO 19007KT 10SM CLR 25/22 A3012 RMK AO2 SLP200
T02500222





000
SAUS41 KLWX 310652 COR
MTRRYT
SPECI KRYT 310644Z AUTO 00000KT 7SM OVC011 A3012 RMK AO2 $





000
SAUS41 KLWX 310600
MTRRYT
METAR KRYT 310553Z AUTO 00000KT 7SM OVC009 A3012 RMK AO2 SLPNO 58006
$





000
SAUS41 KLWX 310559 COR
MTRDMH
METAR KDMH 310554Z AUTO 25/22 A3013 RMK AO1 SLP201 T02500222 10261
20250 58005





000
SAUS41 KLWX 310555
MTRNAK
METAR KNAK 310554Z AUTO 16006KT 10SM SCT015 BKN042 25/23 A3012 RMK
AO2 SLP201 T02500228 10256 20244 58006





000
SAUS41 KLWX 310543
MTRNAK
SPECI KNAK 310542Z AUTO 17008KT 10SM SCT015 BKN042 25/23 A3012 RMK
AO2 T02500228





000
SAUS41 KLWX 310539
MTRRYT
SPECI KRYT 310532Z AUTO 00000KT 7SM OVC009 A3012 RMK AO2 $





000
SAUS41 KLWX 310536
MTRNAK
SPECI KNAK 310534Z AUTO 16006KT 10SM BKN016 OVC040 25/23 A3012 RMK
AO2 T02500228





000
SAUS41 KLWX 310503
MTRNAK
SPECI KNAK 310502Z AUTO 17006KT 10SM OVC014 24/22 A3013 RMK AO2
T02440222





000
SAUS41 KLWX 310459 COR
MTRDMH
METAR KDMH 310454Z AUTO 26/22 A3014 RMK AO1 SLP205 T02560222
402780211





000
SAUS41 KLWX 310455
MTRNAK
METAR KNAK 310454Z AUTO 15007KT 10SM OVC015 25/22 A3013 RMK AO2
SLP205 T02500222 402720206





000
SAUS41 KLWX 310454
MTRRYT
METAR KRYT 310453Z AUTO 00000KT 6SM HZ OVC011 A3013 RMK AO2 SLPNO $





000
SAUS41 KLWX 310454
MTRNAK
SPECI KNAK 310452Z AUTO 15007KT 10SM OVC015 25/22 A3013 RMK AO2





000
SAUS41 KLWX 310447
MTRRYT
SPECI KRYT 310440Z AUTO 00000KT 7SM BKN013 BKN040 A3013 RMK AO2 $





000
SAUS41 KLWX 310437
MTRNAK
SPECI KNAK 310435Z AUTO 14008KT 10SM OVC014 25/23 A3013 RMK AO2
T02500228





000
SAUS41 KLWX 310400
MTRRYT
METAR KRYT 310353Z AUTO 00000KT 7SM FEW013 BKN040 OVC090 A3014 RMK
AO2 SLPNO $





000
SAUS41 KLWX 310359 COR
MTRDMH
METAR KDMH 310354Z AUTO 26/22 A3014 RMK AO1 SLP205 T02560217





000
SAUS41 KLWX 310355
MTRNAK
METAR KNAK 310354Z AUTO 15006KT 10SM OVC015 25/22 A3014 RMK AO2
SLP207 T02500217





000
SAUS41 KLWX 310337
MTRRYT
SPECI KRYT 310336Z AUTO 00000KT 5SM HZ FEW018 SCT023 OVC090 A3014
RMK AO2 $





000
SAUS41 KLWX 310300
MTRRYT
METAR KRYT 310253Z AUTO 00000KT 6SM HZ FEW020 BKN025 OVC090 A3014
RMK AO2 SLPNO 51003 $





000
SAUS41 KLWX 310259 COR
MTRDMH
METAR KDMH 310254Z AUTO 26/21 A3014 RMK AO1 SLP206 T02560211 50005





000
SAUS41 KLWX 310255
MTRNAK
METAR KNAK 310254Z AUTO 15009KT 10SM BKN018 25/22 A3014 RMK AO2
SLP206 T02500217 50006





000
SAUS41 KLWX 310210
MTRRYT
SPECI KRYT 310203Z AUTO 00000KT 7SM SCT022 A3014 RMK AO2 $





000
SAUS41 KLWX 310200
MTRRYT
METAR KRYT 310153Z AUTO 00000KT 9SM BKN022 A3014 RMK AO2 SLPNO $





000
SAUS41 KLWX 310159 COR
MTRDMH
METAR KDMH 310154Z AUTO 26/21 A3015 RMK AO1 SLP209 T02560206





000
SAUS41 KLWX 310155
MTRNAK
METAR KNAK 310154Z AUTO 17008G17KT 10SM OVC037 26/21 A3014 RMK AO2
SLP209 T02560211





000
SAUS41 KLWX 310146
MTRRYT
SPECI KRYT 310139Z AUTO 00000KT 7SM BKN022 BKN031 A3014 RMK AO2 $





000
SAUS41 KLWX 310132
MTRRYT
SPECI KRYT 310125Z AUTO 00000KT 9SM SCT024 OVC031 A3013 RMK AO2 $





000
SAUS41 KLWX 310100
MTRRYT
METAR KRYT 310053Z AUTO 00000KT 9SM BKN024 OVC033 A3014 RMK AO2
SLPNO $





000
SAUS41 KLWX 310059 COR
MTRDMH
METAR KDMH 310054Z AUTO 26/20 A3014 RMK AO1 SLP204 T02610200





000
SAUS41 KLWX 310055
MTRNAK
METAR KNAK 310054Z AUTO 17008KT 10SM SCT035 25/21 A3013 RMK AO2
SLP206 T02500206





000
SAUS41 KLWX 310000
MTRRYT
METAR KRYT 302353Z AUTO 00000KT 10SM FEW024 OVC031 A3013 RMK AO2
SLPNO 56003 $





000
SAUS41 KLWX 302359 COR
MTRDMH
METAR KDMH 302354Z AUTO 26/20 A3013 RMK AO1 SLP201 T02610200 10278
20261 56006





000
SAUS41 KLWX 302355
MTRNAK
METAR KNAK 302354Z AUTO 16007KT 10SM FEW050 26/21 A3012 RMK AO2
SLP201 T02560206 10272 20250 56009





000
SAUS41 KLWX 302300
MTRRYT
METAR KRYT 302253Z AUTO 00000KT 10SM OVC027 A3013 RMK AO2 SLPNO $





000
SAUS41 KLWX 302259 COR
MTRDMH
METAR KDMH 302254Z AUTO 27/19 A3013 RMK AO1 SLP201 T02670194





000
SAUS41 KLWX 302255
MTRNAK
METAR KNAK 302254Z AUTO 16010KT 10SM BKN041 26/20 A3012 RMK AO2
SLP202 T02610200





000
SAUS41 KLWX 302226
MTRRYT
SPECI KRYT 302219Z AUTO 00000KT 10SM BKN025 A3012 RMK AO2 $





000
SAUS41 KLWX 302200
MTRRYT
METAR KRYT 302153Z AUTO 00000KT 10SM SCT025 A3012 RMK AO2 SLPNO $





000
SAUS41 KLWX 302159 COR
MTRDMH
METAR KDMH 302154Z AUTO 27/19 A3013 RMK AO1 SLP203 T02720189





000
SAUS41 KLWX 302156
MTRNAK
METAR KNAK 302154Z AUTO 16009KT 10SM BKN049 26/20 A3013 RMK AO2
SLP204 T02610200





000
SAUS41 KLWX 302100
MTRRYT
METAR KRYT 302053Z AUTO 00000KT 10SM OVC023 A3014 RMK AO2 SLPNO
56017 $





000
SAUS41 KLWX 302059 COR
MTRDMH
METAR KDMH 302054Z AUTO 27/19 A3014 RMK AO1 SLP207 T02720189 56018





000
SAUS41 KLWX 302056
MTRNAK
METAR KNAK 302054Z AUTO 16008KT 10SM FEW037 26/19 A3015 RMK AO2
SLP210 T02610194 56018





000
SAUS41 KLWX 302000
MTRRYT
METAR KRYT 301953Z AUTO 00000KT 10SM OVC021 A3015 RMK AO2 SLPNO $





000
SAUS41 KLWX 301959 COR
MTRDMH
METAR KDMH 301954Z AUTO 26/18 A3016 RMK AO1 SLP212 T02610183





000
SAUS41 KLWX 301955
MTRNAK
METAR KNAK 301954Z AUTO 17008KT 10SM CLR 27/19 A3016 RMK AO2 SLP213
T02670189





000
SAUS41 KLWX 301900
MTRRYT
METAR KRYT 301853Z AUTO 00000KT 10SM OVC019 A3017 RMK AO2 SLPNO $





000
SAUS41 KLWX 301859 COR
MTRDMH
METAR KDMH 301854Z AUTO 27/18 A3018 RMK AO1 SLP218 T02670183





000
SAUS41 KLWX 301855
MTRNAK
METAR KNAK 301854Z AUTO 14014KT 10SM SCT032 26/17 A3017 RMK AO2
SLP219 T02610172





000
SAUS41 KLWX 301800
MTRRYT
METAR KRYT 301753Z AUTO 00000KT 10SM OVC019 A3019 RMK AO2 SLPNO
56013 $





000
SAUS41 KLWX 301759 COR
MTRDMH
METAR KDMH 301754Z AUTO 27/18 A3020 RMK AO1 SLP225 T02670183 10267
20222 58017





000
SAUS41 KLWX 301755
MTRNAK
METAR KNAK 301754Z AUTO 14014KT 10SM BKN032 25/18 A3020 RMK AO2
SLP228 T02500183 10256 20217 58014





000
SAUS41 KLWX 301700
MTRRYT
METAR KRYT 301653Z AUTO 00000KT 10SM OVC017 A3020 RMK AO2 SLPNO $





000
SAUS41 KLWX 301659 COR
MTRDMH
METAR KDMH 301654Z AUTO 26/18 A3022 RMK AO1 SLP232 T02560178





000
SAUS41 KLWX 301655
MTRNAK
METAR KNAK 301654Z AUTO 15012KT 10SM SCT038 SCT045 BKN070 25/18
A3022 RMK AO2 SLP234 T02500183





000
SAUS41 KLWX 301600
MTRRYT
METAR KRYT 301553Z AUTO VRB05KT 10SM OVC017 A3021 RMK AO2 SLPNO $





000
SAUS41 KLWX 301559 COR
MTRDMH
METAR KDMH 301554Z AUTO 24/17 A3024 RMK AO1 SLP238 T02440167





000
SAUS41 KLWX 301555
MTRNAK
METAR KNAK 301554Z AUTO 14008KT 10SM BKN038 OVC070 24/18 A3023 RMK
AO2 SLP239 T02440178





000
SAUS41 KLWX 301500
MTRRYT
METAR KRYT 301453Z AUTO VRB04KT 10SM SCT019 OVC027 A3023 RMK AO2
SLPNO 54000 $





000
SAUS41 KLWX 301459 COR
MTRDMH
METAR KDMH 301454Z AUTO 23/16 A3025 RMK AO1 SLP242 T02330161 53001





000
SAUS41 KLWX 301455
MTRNAK
METAR KNAK 301454Z AUTO 14007KT 10SM SCT038 BKN048 OVC060 23/17
A3024 RMK AO2 SLP242 T02330167 53001





000
SAUS41 KLWX 301400
MTRRYT
METAR KRYT 301353Z AUTO 00000KT 10SM FEW016 SCT021 OVC029 A3023 RMK
AO2 SLPNO $





000
SAUS41 KLWX 301359 COR
MTRDMH
METAR KDMH 301354Z AUTO 23/16 A3024 RMK AO1 SLP240 T02280156





000
SAUS41 KLWX 301355
MTRNAK
METAR KNAK 301354Z AUTO 13009KT 10SM OVC037 23/18 A3023 RMK AO2
SLP239 T02280178





000
SAUS41 KLWX 301317
MTRRYT
SPECI KRYT 301310Z AUTO 00000KT 10SM SCT014 OVC029 A3023 RMK AO2 $





000
SAUS41 KLWX 301300
MTRRYT
METAR KRYT 301253Z AUTO 00000KT 10SM BKN014 OVC020 A3023 RMK AO2
SLPNO $





000
SAUS41 KLWX 301259 COR
MTRDMH
METAR KDMH 301254Z AUTO 23/16 A3024 RMK AO1 SLP240 T02280161





000
SAUS41 KLWX 301255
MTRNAK
METAR KNAK 301254Z AUTO 16008KT 10SM OVC038 22/17 A3024 RMK AO2
SLP242 T02170167





000
SAUS41 KLWX 301251
MTRRYT
SPECI KRYT 301244Z AUTO 00000KT 10SM OVC016 A3023 RMK AO2 $





000
SAUS41 KLWX 301200
MTRRYT
METAR KRYT 301153Z AUTO 00000KT 10SM BKN012 OVC018 A3023 RMK AO2
SLPNO 51010 $





000
SAUS41 KLWX 301159 COR
MTRDMH
METAR KDMH 301154Z AUTO 22/16 A3024 RMK AO1 SLP241 T02220156 10222
20211 51008





000
SAUS41 KLWX 301155
MTRNAK
METAR KNAK 301154Z AUTO 13008KT 10SM BKN039 OVC060 22/17 A3024 RMK
AO2 SLP240 T02220172 10222 20206 51010





000
SAUS41 KLWX 301100
MTRRYT
METAR KRYT 301053Z AUTO 00000KT 10SM OVC012 A3023 RMK AO2 SLPNO $





000
SAUS41 KLWX 301059 COR
MTRDMH
METAR KDMH 301054Z AUTO 22/17 A3024 RMK AO1 SLP240 T02170167





000
SAUS41 KLWX 301055
MTRNAK
METAR KNAK 301054Z AUTO 14008KT 10SM OVC038 22/17 A3024 RMK AO2
SLP240 T02170167





000
SAUS41 KLWX 301000
MTRRYT
METAR KRYT 300953Z AUTO 00000KT 10SM OVC012 A3022 RMK AO2 SLPNO $





000
SAUS41 KLWX 300959 COR
MTRDMH
METAR KDMH 300954Z AUTO 22/16 A3023 RMK AO1 SLP237 T02170161





000
SAUS41 KLWX 300955
MTRNAK
METAR KNAK 300954Z AUTO 14010KT 10SM OVC039 22/17 A3022 RMK AO2
SLP235 T02170172





    US Dept of Commerce
    National Oceanic and Atmospheric Administration
    National Weather Service
    1325 East West Highway
    Silver Spring, MD 20910
    Page Author: NWS Internet Services Team
Disclaimer
Information Quality
Credits
Glossary
Privacy Policy
Freedom of Information Act (FOIA)
About Us
Career Opportunities